Time;durP1;ratioP1;P1;durP2;ratioP2;P2;SDS_P1;SDS_P2;PMS_P1;PMS_P2;Temp;Humidity;BMP_temperature;BMP_pressure;BME280_temperature;BME280_humidity;BME280_pressure;Samples;Min_cycle;Max_cycle;Signal;HPM_P1;HPM_P2
2021/12/11 00:01:18;;;;;;;3.10;1.60;;;;;;;9.13;82.14;97932.13;101780;1317;74624;-20
2021/12/11 00:03:59;;;;;;;4.70;2.10;;;;;;;9.23;82.34;97929.50;101848;1317;73484;-19
2021/12/11 00:06:42;;;;;;;2.80;1.80;;;;;;;9.39;81.48;97935.73;101889;1314;61400;-20
2021/12/11 00:09:23;;;;;;;3.60;2.20;;;;;;;9.17;82.00;97935.86;101768;1319;61029;-19
2021/12/11 00:12:06;;;;;;;2.90;1.90;;;;;;;9.06;82.44;97925.66;101726;1316;74699;-19
2021/12/11 00:14:35;;;;;;;;;;;;;;;9.30;81.53;97930.39;102140;1317;74596;-20
2021/12/11 00:17:04;;;;;;;5.50;1.70;;;;;;;9.16;81.46;97928.98;102300;1314;73127;-20
2021/12/11 00:19:35;;;;;;;2.90;2.00;;;;;;;8.97;82.49;97932.84;102308;1313;62964;-20
2021/12/11 00:22:10;;;;;;;3.60;2.10;;;;;;;9.18;81.87;97925.77;101855;1317;61271;-20
2021/12/11 00:24:38;;;;;;;3.00;1.80;;;;;;;9.18;81.82;97934.89;101632;1316;74825;-19
2021/12/11 00:27:11;;;;;;;5.20;1.80;;;;;;;8.99;82.41;97941.05;101914;1316;75542;-20
2021/12/11 00:29:39;;;;;;;3.60;2.00;;;;;;;9.02;82.50;97936.92;101739;1316;74492;-20
2021/12/11 00:32:33;;;;;;;6.00;2.70;;;;;;;9.28;81.28;97936.90;102262;1313;62287;-19
2021/12/11 00:35:08;;;;;;;7.30;2.90;;;;;;;9.15;81.59;97943.72;102157;1313;61274;-20
2021/12/11 00:37:36;;;;;;;6.80;2.40;;;;;;;8.90;82.41;97941.09;102032;1314;75802;-20
2021/12/11 00:40:10;;;;;;;8.90;3.40;;;;;;;9.12;81.85;97933.09;102183;1313;75998;-20
2021/12/11 00:42:38;;;;;;;6.00;3.00;;;;;;;9.20;81.26;97939.21;102114;1314;74478;-20
2021/12/11 00:45:09;;;;;;;3.20;1.80;;;;;;;8.99;81.89;97939.98;102322;1317;61230;-20
2021/12/11 00:47:43;;;;;;;4.80;2.00;;;;;;;8.91;82.56;97944.54;102131;1314;62089;-20
2021/12/11 00:50:12;;;;;;;3.80;2.80;;;;;;;9.18;81.59;97941.66;102047;1320;75642;-20
2021/12/11 00:52:54;;;;;;;8.10;3.10;;;;;;;9.13;81.33;97948.20;102099;1316;76078;-19
2021/12/11 00:55:33;;;;;;;9.80;2.90;;;;;;;8.86;82.36;97955.32;101753;1314;74077;-20
2021/12/11 00:58:07;;;;;;;10.00;3.30;;;;;;;9.04;81.89;97955.42;101857;1314;61173;-19
2021/12/11 01:00:46;;;;;;;6.10;2.30;;;;;;;9.15;81.25;97952.85;102113;1314;62108;-20
2021/12/11 01:03:18;;;;;;;3.60;2.10;;;;;;;8.97;81.92;97951.95;101760;1316;74596;-20
2021/12/11 01:05:49;;;;;;;5.90;2.10;;;;;;;8.90;82.71;97960.69;101718;1316;76507;-19
2021/12/11 01:08:28;;;;;;;8.20;3.70;;;;;;;9.13;81.63;97959.14;101781;1314;73686;-20
2021/12/11 01:11:18;;;;;;;5.00;2.80;;;;;;;9.04;81.79;97953.35;101671;1317;61201;-20
2021/12/11 01:13:49;;;;;;;4.90;2.20;;;;;;;8.80;82.90;97965.74;101818;1316;61174;-20
2021/12/11 01:16:18;;;;;;;5.50;2.10;;;;;;;9.00;82.57;97958.21;101784;1316;75383;-20
2021/12/11 01:18:49;;;;;;;4.70;2.50;;;;;;;9.09;81.87;97961.04;101956;1314;75011;-20
2021/12/11 01:21:44;;;;;;;7.60;2.30;;;;;;;8.91;82.30;97957.16;101956;1317;74463;-20
2021/12/11 01:24:27;;;;;;;4.60;2.20;;;;;;;8.85;82.82;97957.48;102058;1314;61951;-20
2021/12/11 01:26:58;;;;;;;7.90;3.00;;;;;;;9.11;81.90;97960.90;102152;1314;62276;-20
2021/12/11 01:29:27;;;;;;;6.00;2.40;;;;;;;8.96;82.12;97957.20;101885;1317;76056;-20
2021/12/11 01:31:56;;;;;;;5.90;3.00;;;;;;;8.82;82.86;97955.04;102259;1313;75910;-20
2021/12/11 01:34:25;;;;;;;2.30;1.70;;;;;;;9.04;82.06;97949.88;102133;1314;72161;-20
2021/12/11 01:36:54;;;;;;;3.50;2.10;;;;;;;9.07;81.71;97955.34;102106;1316;62080;-19
2021/12/11 01:39:25;;;;;;;3.90;1.80;;;;;;;8.86;82.27;97960.20;102261;1313;61902;-20
2021/12/11 01:41:54;;;;;;;3.20;1.80;;;;;;;8.95;82.56;97960.89;101911;1317;75659;-21
2021/12/11 01:44:30;;;;;;;3.20;1.30;;;;;;;9.17;81.52;97964.16;102084;1314;74731;-20
2021/12/11 01:47:02;;;;;;;5.00;2.00;;;;;;;9.04;81.87;97969.11;102046;1316;74505;-20
2021/12/11 01:49:31;;;;;;;2.50;1.80;;;;;;;8.88;82.74;97967.64;102077;1316;63785;-20
2021/12/11 01:52:02;;;;;;;2.50;1.70;;;;;;;9.10;81.77;97967.38;102288;1313;61211;-19
2021/12/11 01:54:35;;;;;;;3.90;2.00;;;;;;;9.12;81.67;97964.42;101893;1317;73849;-20
2021/12/11 01:57:10;;;;;;;3.60;2.30;;;;;;;8.90;82.63;97971.98;101885;1317;74658;-19
2021/12/11 01:59:41;;;;;;;6.70;2.60;;;;;;;8.99;82.31;97959.84;101805;1317;74697;-19
2021/12/11 02:02:31;;;;;;;3.40;1.60;;;;;;;9.17;81.29;97969.16;101666;1316;61169;-19
2021/12/11 02:05:00;;;;;;;4.30;1.70;;;;;;;9.00;81.91;97960.30;102095;1313;62287;-20
2021/12/11 02:07:32;;;;;;;2.80;1.70;;;;;;;8.89;82.68;97967.35;102041;1316;75501;-19
2021/12/11 02:10:01;;;;;;;7.20;1.80;;;;;;;9.15;81.62;97966.54;101832;1317;75151;-19
2021/12/11 02:12:37;;;;;;;2.10;1.40;;;;;;;9.15;81.19;97970.04;102181;1313;74181;-19
2021/12/11 02:15:09;;;;;;;6.00;2.00;;;;;;;8.91;82.20;97972.36;101845;1314;61141;-19
2021/12/11 02:17:40;;;;;;;4.30;1.40;;;;;;;9.00;82.28;97970.33;101674;1316;61270;-19
2021/12/11 02:20:11;;;;;;;3.20;1.50;;;;;;;9.16;81.33;97970.10;101829;1314;73227;-19
2021/12/11 02:22:42;;;;;;;2.50;1.40;;;;;;;9.03;81.80;97977.86;101721;1316;75215;-19
2021/12/11 02:25:27;;;;;;;5.90;2.00;;;;;;;8.88;82.51;97976.83;101685;1317;74629;-19
2021/12/11 02:28:03;;;;;;;4.40;2.10;;;;;;;9.17;81.44;97971.38;101679;1317;61473;-19
2021/12/11 02:30:49;;;;;;;3.70;2.00;;;;;;;9.08;81.27;97969.92;102012;1313;62107;-20
2021/12/11 02:33:18;;;;;;;3.50;2.00;;;;;;;8.87;82.23;97973.61;101945;1316;74643;-20
2021/12/11 02:35:48;;;;;;;2.90;2.10;;;;;;;8.97;82.08;97982.52;102113;1313;76176;-20
2021/12/11 02:38:28;;;;;;;3.30;1.60;;;;;;;9.09;81.44;97988.04;102180;1314;71289;-19
2021/12/11 02:41:08;;;;;;;4.90;1.80;;;;;;;8.94;81.58;97980.22;102158;1319;61071;-21
2021/12/11 02:43:43;;;;;;;2.00;1.60;;;;;;;8.86;82.24;97977.35;102226;1313;62138;-19
2021/12/11 02:46:15;;;;;;;3.30;1.70;;;;;;;9.16;81.22;97983.63;101936;1316;75376;-19
2021/12/11 02:48:51;;;;;;;2.50;1.80;;;;;;;9.11;80.99;97987.36;102072;1319;77540;-19
2021/12/11 02:51:57;;;;;;;2.40;1.30;;;;;;;8.86;81.90;97983.35;101877;1319;74770;-20
2021/12/11 02:54:36;;;;;;;1.80;1.40;;;;;;;9.06;81.60;97984.37;101457;1319;62430;-19
2021/12/11 02:57:15;;;;;;;2.10;1.60;;;;;;;9.16;80.96;97984.45;101145;1320;61103;-20
2021/12/11 02:59:45;;;;;;;1.70;1.20;;;;;;;8.94;81.59;97981.40;101350;1321;74668;-19
2021/12/11 03:02:19;;;;;;;2.40;1.70;;;;;;;8.84;82.28;97983.39;101489;1322;75488;-19
2021/12/11 03:05:07;;;;;;;2.50;1.80;;;;;;;9.10;81.24;97985.70;101369;1322;74408;-19
2021/12/11 03:07:38;;;;;;;3.10;2.20;;;;;;;9.03;81.02;97987.02;101720;1319;61208;-19
2021/12/11 03:10:09;;;;;;;2.80;1.80;;;;;;;8.80;81.96;97986.49;101589;1325;61301;-19
2021/12/11 03:12:39;;;;;;;1.30;1.00;;;;;;;8.97;81.60;97989.13;101431;1322;75358;-19
2021/12/11 03:15:08;;;;;;;5.20;2.30;;;;;;;9.07;81.18;97987.00;101544;1319;74664;-19
2021/12/11 03:17:36;;;;;;;2.90;2.10;;;;;;;8.86;81.73;97988.06;101657;1319;74500;-19
2021/12/11 03:20:10;;;;;;;8.20;1.90;;;;;;;8.77;82.44;97992.17;101587;1320;62746;-19
2021/12/11 03:22:38;;;;;;;2.40;1.60;;;;;;;9.01;81.58;97989.83;101115;1325;61843;-19
2021/12/11 03:25:08;;;;;;;2.70;1.70;;;;;;;8.98;81.41;97993.55;101324;1323;74449;-19
2021/12/11 03:27:36;;;;;;;3.70;1.40;;;;;;;8.79;82.13;97990.20;101320;1319;74062;-18
2021/12/11 03:30:13;;;;;;;5.60;2.00;;;;;;;8.91;82.04;97993.65;101653;1319;73067;-18
2021/12/11 03:32:41;;;;;;;4.20;1.60;;;;;;;9.12;81.18;97992.29;101769;1316;61898;-22
2021/12/11 03:35:10;;;;;;;3.20;1.80;;;;;;;9.02;81.03;97989.71;102291;1314;61026;-19
2021/12/11 03:37:38;;;;;;;4.50;1.40;;;;;;;8.80;81.93;97988.91;102304;1313;75685;-19
2021/12/11 03:40:08;;;;;;;1.80;1.20;;;;;;;8.89;82.07;97986.44;102113;1313;76069;-19
2021/12/11 03:42:37;;;;;;;3.20;1.40;;;;;;;9.05;81.24;97990.98;102103;1316;74617;-19
2021/12/11 03:45:12;;;;;;;5.60;2.60;;;;;;;8.89;81.41;97984.98;102305;1314;61471;-19
2021/12/11 03:47:45;;;;;;;2.80;1.80;;;;;;;8.69;82.54;97991.15;101926;1314;61201;-19
2021/12/11 03:50:14;;;;;;;3.20;1.80;;;;;;;8.97;81.36;97985.27;102175;1313;75849;-19
2021/12/11 03:52:44;;;;;;;3.70;2.20;;;;;;;8.95;81.22;97990.17;101880;1316;74794;-19
2021/12/11 03:55:15;;;;;;;3.10;2.00;;;;;;;8.69;81.67;97985.73;101827;1316;74457;-20
2021/12/11 03:57:44;;;;;;;5.20;1.90;;;;;;;8.75;82.09;97990.73;102225;1313;61179;-18
2021/12/11 04:00:19;;;;;;;2.50;1.80;;;;;;;8.94;81.28;97983.55;102267;1313;61183;-18
2021/12/11 04:02:48;;;;;;;2.90;1.10;;;;;;;8.83;81.28;97988.50;102109;1315;75818;-18
2021/12/11 04:05:17;;;;;;;6.50;2.20;;;;;;;8.61;82.27;97990.81;102143;1314;74498;-19
2021/12/11 04:07:50;;;;;;;3.70;1.90;;;;;;;8.86;81.75;97985.63;102201;1314;74572;-19
2021/12/11 04:10:18;;;;;;;6.30;2.10;;;;;;;9.04;80.63;97984.48;102099;1317;62402;-19
2021/12/11 04:12:48;;;;;;;3.80;2.30;;;;;;;8.85;81.13;97982.39;101818;1317;62233;-19
2021/12/11 04:15:16;;;;;;;2.50;2.00;;;;;;;8.60;81.88;97983.30;101724;1314;74772;-19
2021/12/11 04:17:45;;;;;;;2.90;2.00;;;;;;;8.78;81.82;97983.75;101770;1316;76089;-19
2021/12/11 04:20:16;;;;;;;4.50;2.00;;;;;;;8.92;81.00;97981.45;101896;1313;74349;-19
2021/12/11 04:22:45;;;;;;;2.80;2.10;;;;;;;8.76;81.38;97979.99;101689;1315;62478;-19
2021/12/11 04:25:14;;;;;;;2.40;1.40;;;;;;;8.59;82.27;97985.84;101948;1314;61153;-18
2021/12/11 04:27:42;;;;;;;2.70;1.60;;;;;;;8.84;81.52;97990.84;101748;1316;74221;-18
2021/12/11 04:30:11;;;;;;;3.70;2.50;;;;;;;8.90;81.07;97990.98;102089;1315;76114;-18
2021/12/11 04:32:43;;;;;;;3.80;2.40;;;;;;;8.64;81.75;97990.91;101872;1320;72961;-20
2021/12/11 04:35:12;;;;;;;3.00;1.90;;;;;;;8.62;82.25;97991.44;102229;1313;61858;-19
2021/12/11 04:37:40;;;;;;;2.60;1.80;;;;;;;8.86;81.30;97995.66;101940;1313;61250;-20
2021/12/11 04:40:20;;;;;;;4.50;1.90;;;;;;;8.79;81.54;97992.96;101976;1313;75779;-19
2021/12/11 04:45:33;;;;;;;2.40;1.80;;;;;;;8.71;82.10;97993.58;102293;1313;74486;-19
2021/12/11 04:48:22;;;;;;;4.70;2.30;;;;;;;8.92;80.90;97997.03;101917;1316;61126;-19
2021/12/11 04:51:09;;;;;;;10.50;4.70;;;;;;;8.77;81.00;97996.63;101963;1316;62094;-19
2021/12/11 05:47:53;;;;;;;3.80;1.60;;;;;;;8.19;82.22;98033.70;102159;1313;61819;-18
2021/12/11 05:50:31;;;;;;;8.30;4.50;;;;;;;8.38;81.76;98036.74;101995;1313;75594;-19
2021/12/11 05:52:59;;;;;;;3.60;2.30;;;;;;;8.42;81.20;98046.77;101739;1316;76119;-20
2021/12/11 05:55:29;;;;;;;4.00;1.70;;;;;;;8.21;81.73;98051.53;101685;1317;74581;-18
2021/12/11 05:57:58;;;;;;;5.30;3.10;;;;;;;8.15;82.47;98043.80;101961;1313;62760;-18
2021/12/11 06:00:34;;;;;;;25.70;10.10;;;;;;;8.44;81.37;98051.42;102142;1314;62145;-18
2021/12/11 06:03:03;;;;;;;13.20;4.50;;;;;;;8.37;81.19;98054.25;101792;1316;75809;-18
2021/12/11 06:05:33;;;;;;;6.80;2.50;;;;;;;8.10;81.86;98058.20;101696;1316;76274;-18
2021/12/11 06:08:03;;;;;;;6.00;3.50;;;;;;;8.13;82.11;98062.41;101860;1313;74620;-18
2021/12/11 06:10:33;;;;;;;6.90;4.40;;;;;;;8.38;81.44;98062.98;102209;1313;61198;-20
2021/12/11 06:13:01;;;;;;;6.30;3.60;;;;;;;8.28;81.35;98063.23;102156;1314;62063;-19
2021/12/11 06:15:48;;;;;;;6.90;3.20;;;;;;;8.03;82.04;98067.27;102060;1313;75841;-19
2021/12/11 06:18:18;;;;;;;10.10;5.10;;;;;;;8.15;81.93;98070.70;101998;1313;76166;-19
2021/12/11 06:20:47;;;;;;;14.50;5.80;;;;;;;8.30;81.24;98060.94;101982;1313;74472;-19
2021/12/11 06:23:16;;;;;;;10.80;3.70;;;;;;;8.15;81.52;98067.77;101762;1316;61888;-19
2021/12/11 06:25:44;;;;;;;23.00;8.10;;;;;;;7.96;82.16;98070.48;102033;1313;61399;-19
2021/12/11 06:28:13;;;;;;;7.70;4.00;;;;;;;8.20;81.86;98079.79;102091;1313;74358;-19
2021/12/11 06:30:41;;;;;;;7.10;3.90;;;;;;;8.25;81.37;98077.31;102229;1313;75843;-19
2021/12/11 06:33:10;;;;;;;8.20;3.90;;;;;;;8.02;81.83;98080.27;102015;1313;73556;-19
2021/12/11 06:35:45;;;;;;;15.90;6.00;;;;;;;8.01;82.72;98084.41;101849;1313;61475;-20
2021/12/11 06:38:16;;;;;;;6.00;3.60;;;;;;;8.29;81.42;98087.86;101892;1314;61268;-19
2021/12/11 06:40:45;;;;;;;4.10;2.50;;;;;;;8.29;80.97;98088.89;101653;1313;74619;-19
2021/12/11 06:43:13;;;;;;;10.70;4.50;;;;;;;8.07;81.64;98088.85;101743;1316;76027;-19
2021/12/11 06:45:42;;;;;;;7.60;3.40;;;;;;;8.12;82.21;98087.60;102001;1313;73470;-19
2021/12/11 06:48:14;;;;;;;7.10;3.10;;;;;;;8.39;81.02;98089.92;101973;1313;61106;-19
2021/12/11 06:50:44;;;;;;;8.70;4.80;;;;;;;8.30;81.03;98097.13;102042;1313;61151;-19
2021/12/11 06:53:17;;;;;;;14.80;6.30;;;;;;;8.00;81.74;98099.30;101708;1320;74341;-19
2021/12/11 06:55:45;;;;;;;8.30;4.00;;;;;;;8.10;82.03;98102.95;102051;1316;75060;-19
2021/12/11 06:58:14;;;;;;;18.60;6.20;;;;;;;8.29;81.09;98104.84;102177;1314;72951;-19
2021/12/11 07:00:42;;;;;;;9.10;4.40;;;;;;;8.17;81.29;98103.61;102229;1313;61532;-20
2021/12/11 07:03:10;;;;;;;17.30;6.00;;;;;;;7.96;81.95;98109.54;102334;1313;61222;-20
2021/12/11 07:05:39;;;;;;;22.00;7.70;;;;;;;8.07;81.99;98112.70;102008;1317;74503;-19
2021/12/11 07:08:07;;;;;;;25.40;8.60;;;;;;;8.26;81.19;98113.54;102112;1314;210348;-19
2021/12/11 07:10:35;;;;;;;17.60;6.10;;;;;;;8.14;81.36;98118.37;101872;1316;74475;-19
2021/12/11 07:13:04;;;;;;;9.00;3.80;;;;;;;7.95;82.16;98119.69;101935;1317;61101;-19
2021/12/11 07:15:32;;;;;;;11.90;4.80;;;;;;;8.11;81.80;98120.48;101986;1313;61223;-19
2021/12/11 07:18:16;;;;;;;13.30;5.70;;;;;;;8.38;80.57;98127.85;102042;1313;75600;-19
2021/12/11 07:20:48;;;;;;;7.70;3.70;;;;;;;8.25;80.87;98132.44;102258;1313;74992;-19
2021/12/11 07:23:17;;;;;;;12.70;5.40;;;;;;;8.02;81.58;98130.92;102323;1313;75791;-19
2021/12/11 07:25:55;;;;;;;19.50;6.60;;;;;;;8.12;81.72;98135.48;102167;1317;61217;-19
2021/12/11 07:28:23;;;;;;;15.90;5.20;;;;;;;8.30;80.94;98135.86;102290;1314;62196;-20
2021/12/11 07:30:53;;;;;;;9.40;3.70;;;;;;;8.21;80.98;98142.14;102297;1313;75529;-20
2021/12/11 07:33:22;;;;;;;10.20;4.00;;;;;;;7.95;81.89;98146.75;101984;1314;74219;-20
2021/12/11 07:35:51;;;;;;;12.20;5.60;;;;;;;8.12;81.80;98155.00;102162;1314;73048;-19
2021/12/11 07:38:19;;;;;;;22.50;8.90;;;;;;;8.32;80.91;98158.80;102106;1319;62538;-20
2021/12/11 07:40:51;;;;;;;34.10;8.90;;;;;;;8.24;81.00;98165.60;102261;1313;61138;-19
2021/12/11 07:43:21;;;;;;;16.90;5.40;;;;;;;7.96;81.79;98165.20;101779;1316;74835;-19
2021/12/11 07:45:50;;;;;;;10.80;4.60;;;;;;;8.11;81.81;98171.16;101922;1314;74807;-19
2021/12/11 07:48:18;;;;;;;20.50;8.30;;;;;;;8.28;80.81;98173.56;101712;1313;74879;-19
2021/12/11 07:50:47;;;;;;;13.50;5.70;;;;;;;8.14;81.00;98173.35;101978;1313;61221;-20
2021/12/11 07:53:17;;;;;;;8.30;3.60;;;;;;;7.93;81.93;98175.48;102172;1313;62712;-19
2021/12/11 07:55:45;;;;;;;7.80;3.30;;;;;;;8.16;81.69;98180.27;101827;1313;75821;-19
2021/12/11 07:58:14;;;;;;;6.00;2.40;;;;;;;8.39;80.80;98182.44;101788;1319;76066;-19
2021/12/11 08:00:43;;;;;;;7.90;3.00;;;;;;;8.30;80.96;98183.40;101905;1320;73593;-19
2021/12/11 08:03:12;;;;;;;9.10;3.70;;;;;;;8.05;81.52;98179.84;101792;1317;61189;-20
2021/12/11 08:05:41;;;;;;;5.70;3.20;;;;;;;8.13;81.60;98188.46;101928;1316;61160;-19
2021/12/11 08:08:11;;;;;;;11.60;5.40;;;;;;;8.31;81.06;98197.43;101944;1316;74652;-19
2021/12/11 08:10:41;;;;;;;10.50;5.40;;;;;;;8.21;81.14;98198.48;102282;1313;75775;-19
2021/12/11 08:13:10;;;;;;;9.50;2.60;;;;;;;7.99;81.89;98196.86;102022;1314;75415;-19
2021/12/11 08:15:44;;;;;;;8.10;3.50;;;;;;;8.25;81.79;98198.85;102032;1313;61189;-19
2021/12/11 08:18:15;;;;;;;12.70;5.20;;;;;;;8.45;80.73;98200.77;102135;1315;61236;-19
2021/12/11 08:20:44;;;;;;;21.70;10.10;;;;;;;8.36;80.86;98205.39;101789;1316;75044;-19
2021/12/11 08:23:13;;;;;;;15.90;5.90;;;;;;;8.16;81.66;98200.86;102093;1319;74289;-19
2021/12/11 08:25:42;;;;;;;24.80;9.30;;;;;;;8.22;82.18;98205.05;101758;1316;74671;-19
2021/12/11 08:28:13;;;;;;;23.60;8.60;;;;;;;8.54;80.91;98199.52;101737;1316;61525;-20
2021/12/11 08:30:43;;;;;;;17.90;7.60;;;;;;;8.52;80.75;98202.80;101740;1313;61246;-19
2021/12/11 08:33:12;;;;;;;9.40;3.50;;;;;;;8.26;81.32;98198.23;101842;1313;75573;-19
2021/12/11 08:35:40;;;;;;;19.70;7.50;;;;;;;8.13;82.18;98197.67;102257;1314;75322;-19
2021/12/11 08:38:09;;;;;;;7.20;3.80;;;;;;;8.47;81.44;98196.00;102289;1313;73210;-19
2021/12/11 08:40:40;;;;;;;10.80;6.00;;;;;;;8.43;80.88;98197.16;102278;1313;61205;-20
2021/12/11 08:43:09;;;;;;;6.00;3.00;;;;;;;8.25;81.64;98202.03;101975;1314;62112;-19
2021/12/11 08:45:49;;;;;;;11.00;3.50;;;;;;;8.13;82.36;98197.42;101844;1317;74692;-19
2021/12/11 08:48:21;;;;;;;14.10;6.40;;;;;;;8.48;81.15;98196.23;101936;1314;74560;-19
2021/12/11 08:50:54;;;;;;;8.50;4.00;;;;;;;8.51;80.92;98193.22;101627;1316;74348;-19
2021/12/11 08:53:23;;;;;;;6.70;2.80;;;;;;;8.28;81.46;98191.66;101762;1316;61250;-19
2021/12/11 08:55:54;;;;;;;6.20;2.90;;;;;;;8.20;82.17;98194.63;102245;1313;62207;-19
2021/12/11 08:58:23;;;;;;;4.00;2.60;;;;;;;8.56;81.19;98193.84;101944;1316;73479;-19
2021/12/11 09:01:14;;;;;;;2.30;2.00;;;;;;;8.54;80.79;98187.63;101941;1316;76561;-19
2021/12/11 09:03:56;;;;;;;3.50;2.20;;;;;;;8.28;81.59;98192.38;102246;1313;73635;-20
2021/12/11 09:06:45;;;;;;;4.30;1.90;;;;;;;8.29;82.17;98190.71;102267;1313;61204;-19
2021/12/11 09:09:34;;;;;;;4.90;3.30;;;;;;;8.60;80.72;98186.77;102159;1319;61207;-20
2021/12/11 09:12:06;;;;;;;6.10;2.90;;;;;;;8.45;81.08;98190.96;102272;1319;75371;-20
2021/12/11 09:14:45;;;;;;;2.10;1.80;;;;;;;8.21;81.82;98190.60;102055;1316;76095;-20
2021/12/11 09:17:36;;;;;;;6.10;2.20;;;;;;;8.41;81.69;98189.02;101933;1313;74397;-19
2021/12/11 09:20:25;;;;;;;5.50;3.80;;;;;;;8.51;81.03;98190.77;102008;1320;61217;-20
2021/12/11 09:22:59;;;;;;;9.70;4.30;;;;;;;8.30;81.50;98191.17;102178;1317;61236;-20
2021/12/11 09:25:53;;;;;;;7.80;3.50;;;;;;;8.25;82.25;98195.06;101907;1316;75661;-20
2021/12/11 09:28:30;;;;;;;9.60;4.70;;;;;;;8.63;80.64;98192.35;102143;1317;74604;-20
2021/12/11 09:31:04;;;;;;;4.00;2.40;;;;;;;8.58;80.58;98187.96;101813;1319;73529;-18
2021/12/11 09:33:41;;;;;;;6.00;2.30;;;;;;;8.28;81.57;98192.92;101867;1319;61253;-20
2021/12/11 09:36:13;;;;;;;4.30;2.60;;;;;;;8.29;82.01;98191.98;101600;1316;62586;-20
2021/12/11 09:38:45;;;;;;;5.60;2.90;;;;;;;8.61;80.88;98193.03;101688;1316;75480;-20
2021/12/11 09:41:20;;;;;;;5.10;3.10;;;;;;;8.54;80.84;98192.96;102179;1316;76086;-21
2021/12/11 09:43:57;;;;;;;6.30;1.70;;;;;;;8.33;81.59;98196.95;102284;1318;73004;-20
2021/12/11 09:46:29;;;;;;;5.20;3.60;;;;;;;8.47;81.93;98195.27;102044;1316;61193;-20
2021/12/11 09:48:58;;;;;;;4.70;3.00;;;;;;;8.78;80.82;98195.96;102086;1317;61144;-20
2021/12/11 09:51:31;;;;;;;4.10;2.60;;;;;;;8.73;80.60;98198.47;102217;1316;73912;-20
2021/12/11 09:54:01;;;;;;;3.50;1.50;;;;;;;8.51;81.51;98202.59;102173;1316;76117;-20
2021/12/11 09:56:34;;;;;;;2.90;2.20;;;;;;;8.50;81.94;98202.49;101913;1316;74602;-20
2021/12/11 09:59:04;;;;;;;2.30;1.70;;;;;;;8.82;80.84;98201.30;102222;1320;61649;-17
2021/12/11 10:01:38;;;;;;;4.70;2.80;;;;;;;8.74;80.56;98200.42;102007;1317;61299;-18
2021/12/11 10:04:20;;;;;;;3.50;2.00;;;;;;;8.46;81.47;98201.23;101911;1317;73690;-18
2021/12/11 10:07:26;;;;;;;6.70;2.90;;;;;;;8.52;81.68;98200.02;102151;1320;75471;-18
2021/12/11 10:09:47;;;;;;;5.70;2.90;;;;;;;8.82;80.83;98203.86;102142;1314;74525;-18
2021/12/11 10:12:19;;;;;;;2.80;2.20;;;;;;;8.72;80.74;98206.12;101918;1320;61939;-18
2021/12/11 10:14:51;;;;;;;3.10;2.20;;;;;;;8.47;81.39;98210.33;102185;1320;61300;-18
2021/12/11 10:17:27;;;;;;;5.10;2.80;;;;;;;8.59;81.70;98217.14;101743;1320;75559;-20
2021/12/11 10:19:57;;;;;;;6.30;3.70;;;;;;;8.85;80.88;98212.14;101745;1316;76215;-18
2021/12/11 10:22:33;;;;;;;5.50;3.20;;;;;;;8.75;80.90;98214.52;101749;1317;73158;-18
2021/12/11 10:25:04;;;;;;;5.60;2.80;;;;;;;8.49;81.68;98215.17;101990;1320;62152;-18
2021/12/11 10:27:33;;;;;;;6.30;3.30;;;;;;;8.68;81.47;98219.30;101723;1316;61836;-18
2021/12/11 10:30:05;;;;;;;6.30;2.30;;;;;;;8.89;80.63;98221.60;101741;1316;75609;-20
2021/12/11 10:32:33;;;;;;;2.50;2.10;;;;;;;8.75;80.80;98219.75;101945;1317;76626;-20
2021/12/11 10:35:07;;;;;;;2.10;1.50;;;;;;;8.51;81.41;98229.69;102277;1317;73427;-20
2021/12/11 10:37:36;;;;;;;5.30;2.90;;;;;;;8.64;81.60;98232.77;101924;1317;62169;-20
2021/12/11 10:40:25;;;;;;;3.80;2.30;;;;;;;8.88;80.37;98234.71;101907;1317;62244;-20
2021/12/11 10:42:57;;;;;;;4.90;3.50;;;;;;;8.75;80.59;98241.38;102159;1314;74347;-20
2021/12/11 10:45:27;;;;;;;6.50;2.60;;;;;;;8.48;81.17;98241.02;101771;1317;73677;-18
2021/12/11 10:47:59;;;;;;;3.30;1.80;;;;;;;8.56;81.40;98242.62;102263;1313;74690;-18
2021/12/11 10:50:34;;;;;;;4.30;2.80;;;;;;;8.73;80.66;98246.69;101996;1317;62180;-18
2021/12/11 10:53:07;;;;;;;5.80;3.00;;;;;;;8.59;80.95;98247.17;101813;1316;61704;-18
2021/12/11 10:55:35;;;;;;;4.20;2.10;;;;;;;8.38;81.86;98252.92;101699;1316;74117;-17
2021/12/11 10:58:09;;;;;;;8.10;4.50;;;;;;;8.59;81.74;98250.99;102100;1314;75247;-20
2021/12/11 11:00:39;;;;;;;;;;;;;;;8.85;80.39;98251.21;101724;1316;73494;-18
2021/12/11 11:03:08;;;;;;;6.80;3.10;;;;;;;8.79;80.61;98248.29;102013;1312;61198;-18
2021/12/11 11:05:36;;;;;;;4.30;2.30;;;;;;;8.50;81.33;98250.08;101972;1314;62238;-20
2021/12/11 11:08:16;;;;;;;4.00;1.80;;;;;;;8.55;82.01;98251.33;102263;1316;74259;-20
2021/12/11 11:10:50;;;;;;;4.50;2.30;;;;;;;8.84;80.69;98257.75;102156;1316;76198;-21
2021/12/11 11:13:19;;;;;;;5.10;2.80;;;;;;;8.78;80.70;98254.79;101923;1317;74477;-20
2021/12/11 11:15:48;;;;;;;4.40;2.70;;;;;;;8.58;81.22;98260.64;101856;1316;62107;-21
2021/12/11 11:18:18;;;;;;;4.30;1.70;;;;;;;8.47;81.93;98261.49;101695;1316;61217;-21
2021/12/11 11:21:27;;;;;;;5.20;2.90;;;;;;;8.82;80.96;98267.40;101631;1316;75614;-21
2021/12/11 11:23:55;;;;;;;3.20;1.90;;;;;;;8.87;80.60;98265.08;101620;1316;76120;-18
2021/12/11 11:26:28;;;;;;;5.10;2.50;;;;;;;8.65;81.17;98265.05;101875;1317;74399;-18
2021/12/11 11:28:57;;;;;;;2.70;1.50;;;;;;;8.53;81.98;98269.86;101956;1316;62296;-20
2021/12/11 11:31:34;;;;;;;5.10;2.80;;;;;;;8.84;80.83;98267.37;101820;1320;61931;-20
2021/12/11 11:34:04;;;;;;;4.30;2.10;;;;;;;8.89;80.47;98265.27;101994;1316;74623;-18
2021/12/11 11:36:34;;;;;;;2.60;1.60;;;;;;;8.67;81.09;98273.52;101781;1317;76182;-19
2021/12/11 11:39:06;;;;;;;3.60;2.20;;;;;;;8.43;81.94;98278.27;101909;1317;74429;-19
2021/12/11 11:41:38;;;;;;;10.60;4.50;;;;;;;8.81;81.39;98280.08;102137;1316;61240;-19
2021/12/11 11:44:06;;;;;;;9.30;4.70;;;;;;;9.07;80.31;98275.77;101863;1316;62206;-20
2021/12/11 11:46:36;;;;;;;5.30;2.30;;;;;;;8.92;80.38;98278.81;101728;1313;74198;-21
2021/12/11 11:49:04;;;;;;;5.00;2.80;;;;;;;8.64;81.11;98280.19;101967;1317;75214;-21
2021/12/11 11:51:37;;;;;;;7.90;3.40;;;;;;;8.70;81.62;98281.95;101949;1313;73574;-21
2021/12/11 11:54:05;;;;;;;5.80;2.90;;;;;;;8.95;80.49;98279.75;101643;1316;61903;-21
2021/12/11 11:56:37;;;;;;;5.20;3.10;;;;;;;8.92;80.41;98280.02;102048;1319;61214;-21
2021/12/11 11:59:05;;;;;;;4.00;2.60;;;;;;;8.72;80.85;98283.96;101681;1316;75673;-21
2021/12/11 12:01:43;;;;;;;4.40;2.20;;;;;;;8.57;81.70;98290.96;102047;1314;76102;-21
2021/12/11 12:04:15;;;;;;;4.10;2.70;;;;;;;9.02;80.68;98292.64;101793;1313;74481;-21
2021/12/11 12:06:47;;;;;;;10.00;3.40;;;;;;;9.17;79.50;98290.86;101633;1318;62332;-21
2021/12/11 12:09:30;;;;;;;5.10;3.10;;;;;;;8.97;80.20;98293.99;101786;1313;61273;-21
2021/12/11 12:11:59;;;;;;;5.10;3.30;;;;;;;8.78;80.84;98291.48;102002;1313;75689;-19
2021/12/11 12:14:33;;;;;;;2.80;1.70;;;;;;;8.56;81.62;98293.30;101882;1313;76074;-18
2021/12/11 12:17:03;;;;;;;5.10;2.80;;;;;;;8.91;81.16;98291.39;101737;1317;73459;-18
2021/12/11 12:19:31;;;;;;;7.70;4.20;;;;;;;9.17;80.17;98290.73;101946;1316;61785;-18
2021/12/11 12:22:03;;;;;;;5.30;3.00;;;;;;;9.06;80.18;98289.42;102278;1319;61158;-19
2021/12/11 12:24:35;;;;;;;3.50;2.30;;;;;;;8.79;80.75;98293.98;101958;1316;75379;-21
2021/12/11 12:27:05;;;;;;;8.40;3.20;;;;;;;8.69;81.21;98300.04;101933;1316;76064;-20
2021/12/11 12:29:34;;;;;;;2.60;1.50;;;;;;;9.05;80.40;98298.30;101925;1316;73486;-18
2021/12/11 12:32:08;;;;;;;3.90;2.40;;;;;;;9.14;79.76;98291.52;101733;1313;61234;-21
2021/12/11 12:34:37;;;;;;;3.10;2.60;;;;;;;8.92;80.08;98289.03;101628;1320;61879;-18
2021/12/11 12:37:07;;;;;;;4.40;3.00;;;;;;;8.66;80.66;98290.52;102084;1314;75595;-20
2021/12/11 12:39:38;;;;;;;3.90;2.90;;;;;;;8.65;81.48;98292.34;102044;1316;76162;-21
2021/12/11 12:42:17;;;;;;;4.10;2.70;;;;;;;9.15;80.22;98298.15;101727;1317;73014;-20
2021/12/11 12:44:52;;;;;;;4.20;2.70;;;;;;;9.19;79.44;98294.70;102030;1319;61221;-20
2021/12/11 12:47:23;;;;;;;4.40;3.30;;;;;;;8.89;79.99;98295.66;102081;1317;61276;-20
2021/12/11 12:49:54;;;;;;;5.30;2.50;;;;;;;8.63;81.00;98299.09;101952;1316;74772;-20
2021/12/11 12:52:35;;;;;;;2.20;1.70;;;;;;;8.70;81.61;98304.44;101974;1317;75527;-20
2021/12/11 12:55:12;;;;;;;3.60;1.70;;;;;;;9.19;79.93;98309.37;102284;1314;73184;-20